Time;durP1;ratioP1;P1;durP2;ratioP2;P2;SDS_P1;SDS_P2;PMS_P1;PMS_P2;Temp;Humidity;BMP_temperature;BMP_pressure;BME280_temperature;BME280_humidity;BME280_pressure;Samples;Min_cycle;Max_cycle;Signal;HPM_P1;HPM_P2
2021/07/16 00:02:24;;;;;;;9.25;6.43;;;26.30;57.30;;;;;;5054296;28;20082;-72
2021/07/16 00:04:50;;;;;;;7.40;6.47;;;26.20;57.40;;;;;;5054411;28;20033;-72
2021/07/16 00:07:16;;;;;;;13.73;7.20;;;26.20;57.70;;;;;;5053740;28;20033;-72
2021/07/16 00:09:42;;;;;;;10.70;6.38;;;26.10;57.80;;;;;;5054015;28;20078;-72
2021/07/16 00:12:07;;;;;;;9.32;6.72;;;26.10;58.00;;;;;;5054262;28;20029;-73
2021/07/16 00:14:33;;;;;;;9.45;6.50;;;26.00;58.20;;;;;;5053862;28;20028;-73
2021/07/16 00:17:00;;;;;;;9.25;6.78;;;25.90;58.40;;;;;;5053859;28;20040;-73
2021/07/16 00:19:26;;;;;;;8.63;7.05;;;25.80;58.70;;;;;;5069260;28;20082;-73
2021/07/16 00:21:52;;;;;;;8.60;6.95;;;25.80;58.90;;;;;;5053820;28;20124;-73
2021/07/16 00:24:18;;;;;;;7.68;6.88;;;25.80;59.20;;;;;;5054216;28;20115;-73
2021/07/16 00:26:46;;;;;;;17.70;8.02;;;25.70;59.50;;;;;;5053014;28;20052;-72
2021/07/16 00:29:12;;;;;;;11.88;7.35;;;25.70;59.80;;;;;;5053639;28;20033;-73
2021/07/16 00:31:38;;;;;;;9.95;6.43;;;25.70;60.00;;;;;;5053701;28;20035;-73
2021/07/16 00:34:04;;;;;;;12.23;7.50;;;25.60;60.30;;;;;;5053872;28;20495;-73
2021/07/16 00:36:30;;;;;;;11.93;7.63;;;25.60;60.60;;;;;;5053552;28;20021;-73
2021/07/16 00:38:55;;;;;;;13.63;8.07;;;25.50;60.90;;;;;;5053880;28;20107;-73
2021/07/16 00:41:21;;;;;;;13.23;7.70;;;25.50;61.20;;;;;;5053487;28;20021;-72
2021/07/16 00:43:47;;;;;;;11.98;7.55;;;25.50;61.40;;;;;;5054063;28;20025;-73
2021/07/16 00:46:12;;;;;;;10.60;7.32;;;25.40;61.60;;;;;;5053978;28;20028;-73
2021/07/16 00:48:38;;;;;;;15.05;7.97;;;25.40;61.80;;;;;;5053238;28;20464;-73
2021/07/16 00:51:04;;;;;;;13.27;7.30;;;25.30;61.90;;;;;;5053166;28;20025;-73
2021/07/16 00:53:30;;;;;;;11.45;8.15;;;25.30;62.20;;;;;;5053417;28;20040;-73
2021/07/16 00:55:56;;;;;;;13.77;7.20;;;25.30;62.20;;;;;;5053452;28;20029;-72
2021/07/16 00:58:21;;;;;;;10.70;7.63;;;25.20;62.20;;;;;;5053469;28;20025;-73
2021/07/16 01:00:47;;;;;;;12.93;7.32;;;25.20;62.00;;;;;;5068816;28;20511;-73
2021/07/16 01:03:13;;;;;;;10.50;7.22;;;25.20;62.10;;;;;;5054368;28;20040;-73
2021/07/16 01:05:39;;;;;;;11.68;7.32;;;25.20;62.10;;;;;;5057453;28;20107;-72
2021/07/16 01:08:05;;;;;;;12.02;7.75;;;25.20;62.00;;;;;;5057902;28;20071;-72
2021/07/16 01:10:31;;;;;;;10.95;7.40;;;25.10;62.00;;;;;;5072839;28;20467;-72
2021/07/16 01:12:57;;;;;;;13.40;7.70;;;25.10;61.90;;;;;;5058123;28;20061;-72
2021/07/16 01:15:26;;;;;;;10.63;7.68;;;25.10;61.70;;;;;;5057287;28;20036;-72
2021/07/16 01:17:53;;;;;;;11.20;7.05;;;25.20;61.80;;;;;;5057220;28;20024;-72
2021/07/16 01:20:25;;;;;;;10.07;7.35;;;25.10;61.60;;;;;;5057191;28;20037;-73
2021/07/16 01:22:51;;;;;;;11.07;7.15;;;25.10;61.50;;;;;;5057060;28;20040;-71
2021/07/16 01:25:20;;;;;;;10.40;7.45;;;25.10;61.70;;;;;;5057151;28;20048;-71
2021/07/16 01:27:49;;;;;;;11.85;7.28;;;25.10;61.80;;;;;;5057776;28;20037;-74
2021/07/16 01:30:17;;;;;;;9.90;7.35;;;25.10;61.70;;;;;;5056998;28;20028;-73
2021/07/16 01:32:44;;;;;;;12.02;8.02;;;25.10;61.90;;;;;;5057238;28;20109;-72
2021/07/16 01:35:11;;;;;;;10.07;7.75;;;25.00;61.90;;;;;;5056921;28;20020;-73
2021/07/16 01:37:37;;;;;;;9.95;7.93;;;25.00;62.20;;;;;;5057408;28;20028;-72
2021/07/16 01:40:09;;;;;;;11.30;7.97;;;25.00;62.20;;;;;;5057387;28;20025;-72
2021/07/16 01:42:43;;;;;;;12.48;7.70;;;25.00;62.30;;;;;;5057301;28;20044;-72
2021/07/16 01:45:10;;;;;;;;;;;25.00;62.30;;;;;;5057040;28;20154;-73
2021/07/16 01:47:38;;;;;;;10.30;7.75;;;24.90;62.00;;;;;;5056676;28;19912;-72
2021/07/16 01:50:05;;;;;;;10.48;7.93;;;24.90;62.40;;;;;;5055339;28;20082;-72
2021/07/16 01:52:32;;;;;;;13.70;7.32;;;24.80;62.70;;;;;;5057310;28;20037;-72
2021/07/16 01:54:58;;;;;;;10.95;7.60;;;24.80;62.50;;;;;;5056862;28;20026;-72
2021/07/16 01:57:25;;;;;;;10.13;7.55;;;24.80;62.70;;;;;;5056843;28;20025;-72
2021/07/16 01:59:50;;;;;;;15.38;7.88;;;24.80;62.60;;;;;;5056472;28;20040;-73
2021/07/16 02:02:16;;;;;;;13.13;8.38;;;24.80;62.70;;;;;;5056617;28;20447;-72
2021/07/16 02:04:42;;;;;;;13.98;8.30;;;24.80;62.90;;;;;;5056435;28;20021;-72
2021/07/16 02:07:08;;;;;;;15.93;9.45;;;24.80;62.80;;;;;;5056074;28;20415;-72
2021/07/16 02:09:34;;;;;;;14.38;10.77;;;24.80;63.00;;;;;;5056283;28;20032;-72
2021/07/16 02:12:00;;;;;;;20.33;15.35;;;24.70;62.70;;;;;;5055952;28;20029;-72
2021/07/16 02:14:27;;;;;;;23.45;15.88;;;24.70;62.90;;;;;;5055342;28;20052;-72
2021/07/16 02:16:54;;;;;;;15.25;12.18;;;24.70;63.20;;;;;;5056390;28;20025;-72
2021/07/16 02:19:20;;;;;;;12.40;10.00;;;24.60;63.30;;;;;;5056152;28;20032;-72
2021/07/16 02:21:46;;;;;;;15.63;9.55;;;24.70;63.20;;;;;;5055719;28;20043;-72
2021/07/16 02:24:12;;;;;;;14.40;9.23;;;24.60;63.20;;;;;;5056543;28;20032;-73
2021/07/16 02:26:38;;;;;;;15.70;9.20;;;24.60;63.30;;;;;;5055706;28;20052;-72
2021/07/16 02:29:05;;;;;;;13.90;9.15;;;24.60;63.30;;;;;;5055914;28;20459;-71
2021/07/16 02:31:31;;;;;;;11.85;7.97;;;24.60;63.20;;;;;;5055781;28;20064;-71
2021/07/16 02:33:57;;;;;;;11.52;8.10;;;24.70;63.00;;;;;;5055866;28;20032;-72
2021/07/16 02:36:23;;;;;;;12.63;8.65;;;24.70;62.90;;;;;;5055773;28;20112;-72
2021/07/16 02:38:50;;;;;;;13.13;8.43;;;24.70;62.90;;;;;;5055724;28;20032;-71
2021/07/16 02:41:16;;;;;;;14.88;8.82;;;24.70;62.80;;;;;;5055605;28;20029;-72
2021/07/16 02:43:42;;;;;;;14.40;8.25;;;24.80;63.00;;;;;;5054998;28;20416;-72
2021/07/16 02:46:08;;;;;;;14.18;8.65;;;24.80;62.90;;;;;;5055445;28;20108;-72
2021/07/16 02:48:36;;;;;;;10.73;8.85;;;24.80;63.00;;;;;;5055859;28;20349;-75
2021/07/16 02:51:03;;;;;;;12.38;8.45;;;24.80;63.10;;;;;;5055539;28;20032;-72
2021/07/16 02:53:29;;;;;;;13.52;8.32;;;24.80;63.20;;;;;;5056092;28;20071;-72
2021/07/16 02:55:55;;;;;;;11.88;8.80;;;24.80;63.20;;;;;;5055454;28;20033;-72
2021/07/16 02:58:21;;;;;;;13.93;8.63;;;24.80;63.30;;;;;;5055114;28;20063;-72
2021/07/16 03:00:47;;;;;;;10.77;8.38;;;24.90;63.40;;;;;;5055324;28;20029;-73
2021/07/16 03:03:13;;;;;;;11.50;8.55;;;24.90;63.50;;;;;;5054838;28;20087;-72
2021/07/16 03:05:39;;;;;;;11.93;9.00;;;24.90;63.70;;;;;;5055275;28;20086;-72
2021/07/16 03:08:07;;;;;;;12.27;8.43;;;24.90;63.70;;;;;;5055231;28;20095;-73
2021/07/16 03:10:38;;;;;;;15.75;9.30;;;24.90;63.90;;;;;;5055197;28;20033;-73
2021/07/16 03:13:09;;;;;;;14.02;9.50;;;24.90;64.00;;;;;;5055084;28;20057;-73
2021/07/16 03:15:35;;;;;;;10.95;8.23;;;25.00;64.00;;;;;;5055314;28;20039;-75
2021/07/16 03:18:03;;;;;;;12.13;8.50;;;25.10;63.80;;;;;;5070395;28;20112;-72
2021/07/16 03:20:42;;;;;;;15.05;8.18;;;25.10;63.80;;;;;;5054671;28;20108;-72
2021/07/16 03:23:09;;;;;;;13.88;9.20;;;25.20;63.80;;;;;;5054932;28;20451;-73
2021/07/16 03:25:35;;;;;;;14.60;8.65;;;25.20;63.60;;;;;;5055387;28;20021;-73
2021/07/16 03:28:03;;;;;;;15.82;8.90;;;25.30;63.50;;;;;;5070208;28;20032;-72
2021/07/16 03:30:31;;;;;;;14.00;9.25;;;25.40;63.60;;;;;;5054991;28;20375;-71
2021/07/16 03:32:57;;;;;;;14.25;8.27;;;25.40;63.50;;;;;;5054796;28;20033;-73
2021/07/16 03:35:24;;;;;;;11.88;7.82;;;25.50;63.40;;;;;;5055109;28;20040;-72
2021/07/16 03:37:52;;;;;;;12.85;8.70;;;25.60;63.00;;;;;;5054867;28;20028;-73
2021/07/16 03:40:21;;;;;;;11.50;8.63;;;25.70;62.90;;;;;;5054501;28;20039;-72
2021/07/16 03:42:47;;;;;;;11.77;8.25;;;25.70;62.90;;;;;;5054516;28;20032;-73
2021/07/16 03:45:14;;;;;;;13.55;8.15;;;25.80;62.80;;;;;;5054513;28;20523;-73
2021/07/16 03:47:44;;;;;;;12.55;7.70;;;25.90;62.80;;;;;;5054763;28;20043;-73
2021/07/16 03:50:15;;;;;;;13.82;8.50;;;26.00;62.70;;;;;;5054621;28;20021;-73
2021/07/16 03:52:41;;;;;;;12.00;7.72;;;26.10;62.50;;;;;;5054823;28;20041;-73
2021/07/16 03:55:09;;;;;;;12.20;8.55;;;26.20;62.30;;;;;;5054328;28;20109;-72
2021/07/16 03:57:36;;;;;;;13.50;8.10;;;26.30;62.20;;;;;;5053920;28;20116;-73
2021/07/16 04:00:05;;;;;;;13.10;8.30;;;26.40;62.10;;;;;;5053814;28;20028;-72
2021/07/16 04:02:32;;;;;;;17.83;9.20;;;26.40;62.00;;;;;;5069326;28;20475;-72
2021/07/16 04:04:57;;;;;;;15.63;8.60;;;26.50;62.00;;;;;;5053813;28;20025;-72
2021/07/16 04:07:29;;;;;;;11.10;7.65;;;26.50;62.10;;;;;;5054299;28;20426;-73
2021/07/16 04:09:55;;;;;;;14.95;7.28;;;26.60;61.90;;;;;;5069305;28;20027;-73
2021/07/16 04:12:21;;;;;;;13.70;8.65;;;26.70;61.60;;;;;;5054511;28;20053;-72
2021/07/16 04:14:53;;;;;;;11.63;7.50;;;26.70;61.40;;;;;;5053972;28;20029;-73
2021/07/16 04:17:22;;;;;;;12.93;7.75;;;26.80;61.10;;;;;;5054651;28;20071;-73
2021/07/16 04:19:48;;;;;;;11.98;7.43;;;26.80;61.00;;;;;;5053778;28;20072;-73
2021/07/16 04:22:14;;;;;;;13.38;7.57;;;26.90;61.00;;;;;;5053662;28;20029;-73
2021/07/16 04:24:42;;;;;;;10.13;7.03;;;27.00;60.70;;;;;;5053754;28;20147;-74
2021/07/16 04:27:09;;;;;;;12.50;7.18;;;27.10;60.30;;;;;;5054360;28;20055;-73
2021/07/16 04:29:35;;;;;;;9.45;6.65;;;27.10;59.80;;;;;;5053401;28;20033;-73
2021/07/16 04:32:02;;;;;;;12.10;7.30;;;27.20;59.40;;;;;;5053364;28;20102;-73
2021/07/16 04:34:29;;;;;;;13.05;7.20;;;27.30;59.20;;;;;;5054039;28;20025;-73
2021/07/16 04:36:56;;;;;;;8.88;6.38;;;27.40;58.90;;;;;;5054161;28;20494;-73
2021/07/16 04:39:22;;;;;;;11.05;6.78;;;27.50;58.70;;;;;;5053442;28;20031;-73
2021/07/16 04:41:48;;;;;;;12.32;6.72;;;27.50;58.10;;;;;;5053770;28;20127;-73
2021/07/16 04:44:13;;;;;;;19.63;7.35;;;27.60;58.20;;;;;;5053406;28;20021;-72
2021/07/16 04:46:39;;;;;;;12.52;7.47;;;27.70;58.10;;;;;;5053550;28;20110;-74
2021/07/16 04:49:06;;;;;;;9.88;7.32;;;27.80;58.00;;;;;;5054333;28;20071;-74
2021/07/16 04:51:33;;;;;;;15.23;7.40;;;27.80;57.90;;;;;;5053560;28;20036;-72
2021/07/16 04:54:00;;;;;;;9.85;7.20;;;27.90;57.70;;;;;;5053533;28;20094;-73
2021/07/16 04:56:26;;;;;;;10.20;6.93;;;28.00;57.50;;;;;;5053101;28;20573;-74
2021/07/16 04:58:52;;;;;;;9.40;7.13;;;28.00;57.70;;;;;;5053276;28;20065;-73
2021/07/16 05:01:21;;;;;;;13.82;7.32;;;28.10;57.70;;;;;;5053803;28;20060;-72
2021/07/16 05:03:49;;;;;;;12.65;7.57;;;28.10;57.80;;;;;;5052918;28;20017;-73
2021/07/16 05:06:15;;;;;;;12.02;7.68;;;28.20;57.90;;;;;;5053224;28;20024;-72
2021/07/16 05:08:41;;;;;;;12.77;7.70;;;28.30;58.10;;;;;;5053229;28;20040;-73
2021/07/16 05:11:08;;;;;;;14.45;8.90;;;28.40;58.20;;;;;;5053306;28;20415;-73
2021/07/16 05:13:37;;;;;;;12.65;8.52;;;28.50;58.30;;;;;;5053072;28;20037;-73
2021/07/16 05:16:04;;;;;;;15.77;8.93;;;28.50;58.30;;;;;;5053121;28;20116;-73
2021/07/16 05:18:30;;;;;;;11.70;8.05;;;28.60;59.00;;;;;;5052843;28;20051;-73
2021/07/16 05:20:57;;;;;;;13.27;9.32;;;28.70;58.20;;;;;;5068572;28;20383;-74
2021/07/16 05:23:22;;;;;;;12.88;9.05;;;28.80;58.30;;;;;;5052917;28;20430;-73
2021/07/16 05:25:48;;;;;;;14.80;8.52;;;28.90;58.40;;;;;;5068356;28;20117;-73
2021/07/16 05:28:14;;;;;;;14.18;7.55;;;29.00;58.20;;;;;;5052739;28;20021;-73
2021/07/16 05:30:40;;;;;;;15.65;8.43;;;29.00;57.80;;;;;;5053076;28;20111;-73
2021/07/16 05:33:05;;;;;;;16.13;7.85;;;29.10;57.70;;;;;;5052933;28;20029;-74
2021/07/16 05:35:31;;;;;;;10.73;7.72;;;29.20;57.10;;;;;;5051550;28;20029;-73
2021/07/16 05:37:57;;;;;;;13.82;7.57;;;29.30;57.30;;;;;;5053286;28;20029;-73
2021/07/16 05:40:23;;;;;;;9.48;7.15;;;29.40;57.20;;;;;;5052953;28;20025;-73
2021/07/16 05:42:48;;;;;;;10.60;7.38;;;29.50;56.90;;;;;;5052955;28;20040;-73
2021/07/16 05:45:14;;;;;;;12.10;6.72;;;29.60;56.70;;;;;;5052709;28;20379;-73
2021/07/16 05:47:40;;;;;;;9.73;7.25;;;29.80;56.20;;;;;;5051382;28;20117;-72
2021/07/16 05:50:06;;;;;;;10.32;7.32;;;29.90;56.10;;;;;;5069183;28;20418;-73
2021/07/16 05:52:32;;;;;;;11.02;6.28;;;30.10;56.00;;;;;;5056373;28;20032;-73
2021/07/16 05:54:58;;;;;;;10.57;5.47;;;30.30;55.10;;;;;;5072004;28;20021;-72
2021/07/16 05:57:24;;;;;;;7.28;5.50;;;30.40;53.70;;;;;;5056427;28;20028;-72
2021/07/16 05:59:50;;;;;;;8.98;5.68;;;30.50;53.10;;;;;;5056355;28;20025;-73
2021/07/16 06:02:16;;;;;;;10.27;5.80;;;30.60;53.00;;;;;;5056183;28;20414;-72
2021/07/16 06:04:41;;;;;;;11.55;6.00;;;30.80;52.70;;;;;;5056521;28;20111;-73
2021/07/16 06:07:07;;;;;;;9.40;5.70;;;30.90;52.30;;;;;;5056364;28;20032;-72
2021/07/16 06:09:33;;;;;;;12.90;6.10;;;31.00;51.90;;;;;;5056056;28;20447;-72
2021/07/16 06:11:58;;;;;;;11.07;5.95;;;31.10;51.40;;;;;;5056389;28;20036;-73
2021/07/16 06:14:24;;;;;;;12.35;5.20;;;31.20;51.10;;;;;;5056227;28;20021;-73
2021/07/16 06:16:50;;;;;;;7.30;5.30;;;31.30;51.00;;;;;;5055921;28;20079;-73
2021/07/16 06:19:19;;;;;;;8.23;5.45;;;31.40;50.80;;;;;;5055542;28;20025;-73
2021/07/16 06:21:45;;;;;;;11.60;5.57;;;31.40;50.70;;;;;;5055763;28;20033;-75
2021/07/16 06:24:12;;;;;;;11.02;7.30;;;31.50;50.80;;;;;;5055934;28;20452;-73
2021/07/16 06:26:38;;;;;;;10.38;5.32;;;31.60;50.80;;;;;;5056019;28;20028;-73
2021/07/16 06:29:05;;;;;;;10.73;5.70;;;31.70;50.80;;;;;;5056595;28;20029;-73
2021/07/16 06:31:31;;;;;;;10.32;5.88;;;31.80;50.60;;;;;;5055811;28;20032;-73
2021/07/16 06:33:57;;;;;;;9.70;6.25;;;31.90;50.50;;;;;;5055439;28;20078;-73
2021/07/16 06:36:23;;;;;;;15.30;6.95;;;32.00;50.50;;;;;;5055808;28;20054;-73
2021/07/16 06:38:49;;;;;;;13.13;6.60;;;32.10;50.50;;;;;;5055605;28;20369;-73
2021/07/16 06:41:15;;;;;;;10.63;6.35;;;32.10;50.50;;;;;;5071151;28;20446;-73
2021/07/16 06:43:41;;;;;;;12.60;6.70;;;32.20;50.50;;;;;;5055502;28;20045;-73
2021/07/16 06:46:08;;;;;;;15.68;6.60;;;32.30;50.50;;;;;;5055902;28;20025;-73
2021/07/16 06:48:35;;;;;;;13.93;7.03;;;32.40;50.70;;;;;;5055329;28;20033;-73
2021/07/16 06:51:01;;;;;;;10.73;7.15;;;32.50;50.60;;;;;;5055251;28;20032;-73
2021/07/16 06:53:26;;;;;;;15.23;7.35;;;32.60;50.50;;;;;;5055844;28;20033;-73
2021/07/16 06:55:52;;;;;;;9.73;6.68;;;32.60;50.60;;;;;;5055176;28;20052;-73
2021/07/16 06:58:18;;;;;;;13.00;6.88;;;32.70;50.60;;;;;;5055129;28;20544;-72
2021/07/16 07:00:44;;;;;;;9.93;7.43;;;32.70;50.60;;;;;;5054883;28;20071;-73
2021/07/16 07:03:10;;;;;;;12.48;7.18;;;32.70;50.60;;;;;;5054961;28;20040;-73
2021/07/16 07:05:36;;;;;;;8.77;6.70;;;32.80;50.80;;;;;;5055198;28;20086;-73
2021/07/16 07:08:03;;;;;;;11.10;6.85;;;32.90;51.10;;;;;;5055006;28;20025;-73
2021/07/16 07:10:29;;;;;;;10.23;7.53;;;32.90;50.70;;;;;;5054653;28;20033;-73
2021/07/16 07:12:55;;;;;;;21.75;8.55;;;33.00;50.90;;;;;;5054944;28;20116;-74
2021/07/16 07:15:20;;;;;;;14.45;6.97;;;33.10;50.90;;;;;;5055051;28;20402;-73
2021/07/16 07:17:46;;;;;;;15.52;7.47;;;33.20;50.60;;;;;;5055255;28;20039;-74
2021/07/16 07:20:13;;;;;;;11.30;6.82;;;33.20;50.40;;;;;;5054646;28;20032;-72
2021/07/16 07:22:39;;;;;;;9.10;7.22;;;33.30;50.30;;;;;;5054455;28;20044;-73
2021/07/16 07:25:06;;;;;;;8.60;7.20;;;33.40;49.70;;;;;;5054633;28;20025;-75
2021/07/16 07:27:32;;;;;;;9.02;6.80;;;33.40;49.60;;;;;;5055454;28;20387;-73
2021/07/16 07:29:58;;;;;;;12.75;7.18;;;33.50;49.90;;;;;;5054511;28;20033;-72
2021/07/16 07:32:24;;;;;;;9.77;6.75;;;33.60;49.80;;;;;;5055308;28;20033;-73
2021/07/16 07:34:50;;;;;;;11.43;7.20;;;33.70;50.00;;;;;;5054249;28;20047;-74
2021/07/16 07:37:15;;;;;;;11.18;7.25;;;33.80;49.80;;;;;;5054167;28;20408;-72
2021/07/16 07:39:42;;;;;;;11.23;6.82;;;33.80;49.50;;;;;;5053955;28;20028;-74
2021/07/16 07:42:11;;;;;;;12.10;7.18;;;33.90;49.30;;;;;;5069535;28;20057;-74
2021/07/16 07:44:37;;;;;;;17.00;6.88;;;33.90;49.40;;;;;;5054376;28;20090;-74
2021/07/16 07:47:03;;;;;;;8.15;6.80;;;34.00;49.50;;;;;;5053944;28;20025;-74
2021/07/16 07:49:30;;;;;;;9.63;7.50;;;34.00;49.40;;;;;;5053323;28;20067;-73
2021/07/16 07:51:55;;;;;;;8.50;7.10;;;34.00;49.50;;;;;;5054156;28;20133;-73
2021/07/16 07:54:21;;;;;;;8.40;7.07;;;34.10;49.60;;;;;;5054855;28;20064;-73
2021/07/16 07:56:47;;;;;;;9.45;7.07;;;34.10;49.90;;;;;;5053719;28;20033;-74
2021/07/16 07:59:12;;;;;;;11.93;7.00;;;34.20;49.90;;;;;;5054294;28;20426;-73
2021/07/16 08:01:38;;;;;;;10.38;7.25;;;34.20;49.80;;;;;;5053442;28;20063;-73
2021/07/16 08:04:04;;;;;;;15.70;7.40;;;34.20;49.70;;;;;;5053658;28;20029;-73
2021/07/16 08:06:31;;;;;;;9.98;6.72;;;34.30;49.70;;;;;;5054196;28;20025;-73
2021/07/16 08:08:57;;;;;;;8.65;6.57;;;34.40;49.60;;;;;;5053657;28;20478;-73
2021/07/16 08:11:23;;;;;;;8.57;7.28;;;34.40;49.80;;;;;;5053976;28;20025;-73
2021/07/16 08:13:49;;;;;;;9.77;6.90;;;34.50;49.80;;;;;;5068253;28;20367;-73
2021/07/16 08:16:14;;;;;;;12.70;7.90;;;34.50;49.70;;;;;;5053549;28;20078;-73
2021/07/16 08:18:40;;;;;;;11.02;7.53;;;34.60;49.60;;;;;;5054333;28;20383;-73
2021/07/16 08:21:06;;;;;;;14.63;7.25;;;34.70;49.60;;;;;;5053305;28;20121;-73
2021/07/16 08:23:32;;;;;;;9.48;6.95;;;34.80;49.60;;;;;;5053434;28;20032;-75
2021/07/16 08:25:57;;;;;;;10.52;7.10;;;34.90;49.40;;;;;;5054241;28;20029;-74
2021/07/16 08:28:23;;;;;;;14.77;8.30;;;35.00;49.50;;;;;;5053391;28;20424;-73
2021/07/16 08:30:49;;;;;;;14.48;7.93;;;35.10;49.50;;;;;;5053897;28;20116;-75
2021/07/16 08:33:14;;;;;;;9.77;7.30;;;35.30;49.40;;;;;;5053602;28;20036;-73
2021/07/16 08:35:40;;;;;;;10.98;6.55;;;35.40;49.10;;;;;;5053768;28;20040;-73
2021/07/16 08:38:06;;;;;;;16.40;7.15;;;35.60;49.00;;;;;;5053541;28;20021;-74
2021/07/16 08:40:33;;;;;;;10.38;6.95;;;35.80;48.80;;;;;;5053709;28;20074;-73
2021/07/16 08:42:59;;;;;;;12.02;6.80;;;35.80;48.30;;;;;;5053288;28;20124;-74
2021/07/16 08:45:26;;;;;;;11.23;6.70;;;36.10;48.40;;;;;;5053166;28;20036;-74
2021/07/16 08:47:52;;;;;;;9.52;7.15;;;36.20;48.30;;;;;;5053346;28;20021;-73
2021/07/16 08:50:19;;;;;;;10.27;6.63;;;36.40;47.90;;;;;;5053465;28;20029;-73
2021/07/16 08:52:47;;;;;;;12.52;6.88;;;36.60;47.90;;;;;;5053389;28;20036;-75
2021/07/16 08:55:14;;;;;;;15.57;6.70;;;36.80;47.90;;;;;;5069585;28;20029;-74
2021/07/16 08:57:41;;;;;;;9.63;7.25;;;37.10;47.60;;;;;;5053147;28;20132;-73
2021/07/16 09:00:13;;;;;;;9.45;6.50;;;37.20;47.50;;;;;;5053513;28;20075;-73
2021/07/16 09:02:54;;;;;;;13.52;7.20;;;37.40;47.10;;;;;;5053421;28;20060;-73
2021/07/16 09:05:35;;;;;;;10.73;7.10;;;37.70;46.50;;;;;;5053159;28;20395;-73
2021/07/16 09:08:02;;;;;;;8.63;6.18;;;37.80;46.30;;;;;;5053253;28;20025;-73
2021/07/16 09:10:28;;;;;;;8.13;6.55;;;38.00;45.90;;;;;;5053877;28;20029;-73
2021/07/16 09:13:01;;;;;;;14.07;6.82;;;38.10;45.60;;;;;;5053409;28;20079;-73
2021/07/16 09:15:28;;;;;;;9.68;6.00;;;38.10;44.80;;;;;;5053097;28;20036;-73
2021/07/16 09:18:12;;;;;;;7.75;6.43;;;38.30;44.80;;;;;;5053282;28;20040;-73
2021/07/16 09:20:38;;;;;;;9.80;6.57;;;38.30;44.10;;;;;;5053294;28;20033;-73
2021/07/16 09:23:18;;;;;;;7.95;6.72;;;38.30;43.70;;;;;;5053117;28;20455;-73
2021/07/16 09:25:59;;;;;;;14.63;6.32;;;38.50;43.40;;;;;;5055830;28;20037;-73
2021/07/16 09:28:26;;;;;;;11.40;5.90;;;38.80;43.30;;;;;;5057610;28;20065;-72
2021/07/16 09:30:55;;;;;;;9.45;6.07;;;38.90;43.50;;;;;;5056933;28;20025;-73
2021/07/16 09:33:21;;;;;;;11.45;6.43;;;39.10;43.40;;;;;;5072382;28;20025;-73
2021/07/16 09:35:49;;;;;;;8.55;6.13;;;39.30;43.00;;;;;;5056641;28;20032;-73
2021/07/16 09:38:17;;;;;;;8.40;6.10;;;39.50;42.80;;;;;;5056512;28;20070;-73
2021/07/16 09:40:51;;;;;;;7.30;6.43;;;39.80;42.80;;;;;;5056725;28;20063;-73
2021/07/16 09:43:17;;;;;;;;;;;40.00;42.60;;;;;;5056785;28;20083;-73
2021/07/16 09:45:56;;;;;;;10.10;6.07;;;40.30;42.80;;;;;;5057181;28;19908;-74
2021/07/16 09:48:31;;;;;;;8.60;6.18;;;40.60;42.30;;;;;;5056393;28;20021;-73
2021/07/16 09:51:13;;;;;;;9.80;6.57;;;40.90;42.00;;;;;;5056498;28;20021;-73
2021/07/16 09:53:43;;;;;;;8.05;6.80;;;41.10;41.70;;;;;;5056521;28;20044;-74
2021/07/16 09:56:23;;;;;;;10.63;6.30;;;41.30;41.40;;;;;;5071499;28;20041;-73
2021/07/16 09:58:59;;;;;;;9.48;5.75;;;41.50;41.20;;;;;;5056470;28;20036;-73
2021/07/16 10:01:27;;;;;;;6.93;6.22;;;41.70;41.00;;;;;;5056898;28;20070;-73
2021/07/16 10:03:54;;;;;;;9.75;6.43;;;41.80;40.90;;;;;;5055882;28;20033;-73
2021/07/16 10:06:21;;;;;;;9.20;6.20;;;42.00;40.60;;;;;;5056247;28;20467;-74
2021/07/16 10:08:48;;;;;;;7.95;6.28;;;42.10;40.40;;;;;;5056798;28;20029;-73
2021/07/16 10:11:19;;;;;;;7.80;6.30;;;42.10;40.40;;;;;;5056047;28;20025;-73
2021/07/16 10:13:47;;;;;;;9.20;6.95;;;42.20;40.40;;;;;;5056160;28;20028;-73
2021/07/16 10:16:14;;;;;;;9.77;6.03;;;42.20;40.40;;;;;;5055989;28;20025;-73
2021/07/16 10:18:40;;;;;;;9.95;6.50;;;42.30;40.30;;;;;;5055852;28;20371;-73
2021/07/16 10:21:06;;;;;;;7.88;6.28;;;42.50;40.10;;;;;;5056092;28;20108;-73
2021/07/16 10:23:33;;;;;;;9.02;6.35;;;42.50;39.70;;;;;;5056254;28;20029;-74
2021/07/16 10:26:00;;;;;;;7.90;6.10;;;42.60;39.40;;;;;;5056527;28;20123;-75
2021/07/16 10:28:43;;;;;;;10.07;6.90;;;42.70;39.40;;;;;;5055983;28;20025;-74
2021/07/16 10:31:31;;;;;;;10.97;6.23;;;42.90;39.20;;;;;;5056528;28;20029;-74
2021/07/16 10:34:30;;;;;;;12.63;6.55;;;43.10;39.10;;;;;;5056073;28;20036;-78
2021/07/16 10:36:58;;;;;;;10.77;6.65;;;43.30;38.90;;;;;;5055703;28;20025;-75
2021/07/16 10:39:46;;;;;;;7.82;6.60;;;43.50;39.10;;;;;;5055745;28;20385;-74
2021/07/16 10:42:28;;;;;;;9.98;6.78;;;43.60;39.20;;;;;;5055559;28;20029;-74
2021/07/16 10:44:59;;;;;;;10.63;7.72;;;43.80;39.10;;;;;;5056239;28;20068;-76
2021/07/16 10:47:37;;;;;;;8.40;6.80;;;43.80;39.10;;;;;;5055447;28;20025;-73
2021/07/16 10:50:26;;;;;;;9.15;6.60;;;43.80;39.00;;;;;;5055461;28;20094;-75
2021/07/16 10:52:52;;;;;;;12.15;7.03;;;43.90;39.00;;;;;;5055915;28;20120;-73
2021/07/16 10:55:39;;;;;;;10.85;6.78;;;43.90;38.90;;;;;;5055656;28;20041;-74
2021/07/16 10:58:17;;;;;;;11.15;6.53;;;43.90;38.80;;;;;;5055419;28;20060;-75
2021/07/16 11:00:43;;;;;;;9.07;6.80;;;44.00;38.70;;;;;;5055228;28;20386;-73
2021/07/16 11:03:10;;;;;;;8.50;6.38;;;44.10;38.80;;;;;;5054855;28;20116;-74
2021/07/16 11:05:39;;;;;;;9.70;6.30;;;44.20;38.70;;;;;;5055369;28;20113;-74
2021/07/16 11:08:06;;;;;;;11.65;6.95;;;44.40;38.60;;;;;;5055133;28;20371;-76
2021/07/16 11:10:51;;;;;;;10.93;6.18;;;44.50;38.50;;;;;;5055038;28;20037;-74
2021/07/16 11:13:55;;;;;;;6.28;5.68;;;44.70;38.20;;;;;;5055041;28;20025;-74
2021/07/16 11:16:25;;;;;;;10.25;6.57;;;44.80;38.20;;;;;;5032884;28;20597;-74
2021/07/16 11:19:06;;;;;;;9.05;6.85;;;44.90;37.80;;;;;;5032769;28;20091;-73
2021/07/16 11:21:43;;;;;;;9.80;7.05;;;45.00;37.70;;;;;;5045806;28;20411;-73
2021/07/16 11:27:07;;;;;;;10.50;7.07;;;45.20;37.80;;;;;;5054923;28;20483;-75
2021/07/16 11:29:34;;;;;;;10.57;6.57;;;45.20;37.50;;;;;;5055442;28;20033;-74
2021/07/16 11:32:13;;;;;;;7.85;6.57;;;45.30;37.50;;;;;;5054702;28;20542;-73
2021/07/16 11:35:06;;;;;;;11.25;6.75;;;45.50;37.60;;;;;;5055125;28;20029;-74
2021/07/16 11:37:32;;;;;;;8.13;6.75;;;45.60;37.50;;;;;;5068545;28;20029;-74
2021/07/16 11:40:10;;;;;;;9.95;6.65;;;45.80;37.60;;;;;;5054356;28;20032;-74
2021/07/16 11:42:41;;;;;;;8.10;6.13;;;46.00;37.40;;;;;;5055063;28;20417;-74
2021/07/16 11:45:17;;;;;;;10.52;7.07;;;46.10;37.40;;;;;;5054513;28;20486;-74
2021/07/16 11:47:42;;;;;;;10.60;6.47;;;46.20;37.30;;;;;;5053154;28;20036;-73
2021/07/16 11:50:11;;;;;;;8.25;6.63;;;46.40;37.10;;;;;;5054524;28;20060;-73
2021/07/16 11:52:40;;;;;;;7.95;6.65;;;46.70;36.90;;;;;;5054024;28;20029;-73
2021/07/16 11:55:20;;;;;;;9.05;7.05;;;46.90;36.70;;;;;;5054565;28;20033;-76
2021/07/16 11:58:00;;;;;;;13.52;6.57;;;47.20;36.40;;;;;;5054124;28;20029;-73
2021/07/16 12:00:28;;;;;;;8.95;7.00;;;47.40;36.30;;;;;;5054487;28;20040;-74
2021/07/16 12:03:05;;;;;;;12.05;7.18;;;47.60;36.10;;;;;;5053900;28;20029;-74
2021/07/16 12:06:07;;;;;;;7.80;7.10;;;47.90;36.00;;;;;;5053819;28;20025;-73
2021/07/16 12:08:34;;;;;;;8.98;7.45;;;48.00;35.90;;;;;;5032159;28;20044;-75
2021/07/16 12:11:09;;;;;;;8.35;7.28;;;48.20;35.70;;;;;;5049411;28;20041;-74
2021/07/16 12:13:37;;;;;;;8.25;7.43;;;48.30;35.30;;;;;;5053837;28;20033;-74
2021/07/16 12:16:06;;;;;;;9.20;7.13;;;48.40;35.40;;;;;;5053480;28;20025;-75
2021/07/16 12:18:32;;;;;;;9.48;7.88;;;48.40;35.10;;;;;;5053584;28;20108;-74
2021/07/16 12:21:06;;;;;;;8.80;7.97;;;48.50;35.10;;;;;;5053854;28;20052;-73
2021/07/16 12:23:32;;;;;;;8.82;7.80;;;48.60;34.90;;;;;;5053338;28;20033;-74
2021/07/16 12:26:27;;;;;;;9.50;7.70;;;48.50;34.80;;;;;;5053853;28;20040;-75
2021/07/16 12:29:08;;;;;;;8.63;7.82;;;48.70;34.80;;;;;;5049436;28;20044;-75
2021/07/16 12:31:34;;;;;;;11.80;7.40;;;48.90;34.50;;;;;;5052885;28;20025;-74
2021/07/16 12:34:01;;;;;;;11.18;8.30;;;48.90;34.60;;;;;;5053135;28;20033;-74
2021/07/16 12:36:31;;;;;;;11.95;8.25;;;49.00;34.50;;;;;;5053437;28;20548;-74
2021/07/16 12:38:57;;;;;;;8.10;7.40;;;49.10;34.40;;;;;;5053402;28;20459;-74
2021/07/16 12:41:23;;;;;;;9.38;7.43;;;49.10;34.50;;;;;;5053230;28;20390;-75
2021/07/16 12:43:49;;;;;;;9.70;8.80;;;49.20;34.60;;;;;;5053572;28;20037;-74
2021/07/16 12:46:26;;;;;;;15.32;10.80;;;49.00;35.00;;;;;;5053250;28;20029;-74
2021/07/16 12:48:52;;;;;;;11.15;10.02;;;48.30;35.60;;;;;;5053916;28;20025;-74
2021/07/16 12:51:19;;;;;;;11.95;10.48;;;47.80;36.30;;;;;;5051975;28;20021;-74